createdAt,value
2023-05-16T00:00:25.889Z,14.90
2023-05-16T00:03:12.289Z,14.90
2023-05-16T00:05:58.017Z,14.90
2023-05-16T00:08:43.352Z,14.90
2023-05-16T00:11:29.126Z,14.90
2023-05-16T00:14:15.127Z,14.70
2023-05-16T00:17:01.076Z,14.70
2023-05-16T00:19:48.835Z,14.80
2023-05-16T00:22:34.232Z,14.70
2023-05-16T00:25:19.685Z,14.70
2023-05-16T00:28:04.903Z,14.70
2023-05-16T00:30:50.518Z,14.70
2023-05-16T00:33:35.960Z,14.80
2023-05-16T00:36:23.834Z,14.70
2023-05-16T00:39:11.534Z,14.70
2023-05-16T00:41:57.672Z,14.70
2023-05-16T00:44:42.892Z,14.60
2023-05-16T00:47:28.343Z,14.60
2023-05-16T00:50:13.832Z,14.40
2023-05-16T00:52:59.328Z,14.40
2023-05-16T00:55:45.242Z,14.30
2023-05-16T00:58:32.227Z,14.30
2023-05-16T01:01:19.885Z,14.30
2023-05-16T01:04:06.483Z,14.30
2023-05-16T01:06:52.092Z,14.20
2023-05-16T01:09:38.319Z,14.20
2023-05-16T01:12:43.477Z,14.20
2023-05-16T01:15:32.309Z,14.30
2023-05-16T01:18:29.973Z,14.20
2023-05-16T01:21:53.252Z,14.20
2023-05-16T01:24:54.482Z,14.10
2023-05-16T01:27:40.964Z,14.10
2023-05-16T01:30:26.598Z,14.00
2023-05-16T01:33:12.379Z,13.90
2023-05-16T01:36:30.390Z,13.90
2023-05-16T01:39:32.452Z,14.00
2023-05-16T01:42:21.357Z,14.00
2023-05-16T01:45:14.330Z,14.00
2023-05-16T01:48:07.538Z,14.10
2023-05-16T01:50:57.542Z,14.00
2023-05-16T01:53:45.340Z,13.90
2023-05-16T01:56:32.439Z,13.80
2023-05-16T01:59:19.254Z,13.70
2023-05-16T02:02:04.612Z,13.60
2023-05-16T02:04:51.008Z,13.60
2023-05-16T02:07:36.163Z,13.60
2023-05-16T02:10:21.912Z,13.70
2023-05-16T02:13:07.237Z,13.60
2023-05-16T02:15:53.052Z,13.60
2023-05-16T02:18:39.247Z,13.50
2023-05-16T02:21:24.369Z,13.50
2023-05-16T02:24:09.749Z,13.50
2023-05-16T02:26:55.065Z,13.40
2023-05-16T02:29:40.665Z,13.40
2023-05-16T02:32:26.559Z,13.40
2023-05-16T02:35:12.513Z,13.40
2023-05-16T02:37:58.276Z,13.40
2023-05-16T02:40:43.761Z,13.40
2023-05-16T02:43:29.000Z,13.30
2023-05-16T02:46:25.373Z,13.30
2023-05-16T02:49:10.557Z,13.40
2023-05-16T02:51:56.009Z,13.30
2023-05-16T02:54:41.356Z,13.40
2023-05-16T02:57:26.970Z,13.30
2023-05-16T03:00:12.927Z,13.30
2023-05-16T03:02:58.457Z,13.20
2023-05-16T03:05:43.817Z,13.20
2023-05-16T03:08:29.346Z,13.10
2023-05-16T03:11:15.050Z,13.10
2023-05-16T03:14:01.713Z,13.10
2023-05-16T03:16:47.690Z,13.10
2023-05-16T03:19:34.315Z,13.20
2023-05-16T03:22:19.669Z,13.10
2023-05-16T03:25:05.770Z,13.00
2023-05-16T03:27:50.792Z,13.10
2023-05-16T03:30:36.300Z,13.20
2023-05-16T03:33:21.730Z,13.20
2023-05-16T03:36:07.481Z,13.10
2023-05-16T03:38:52.837Z,13.10
2023-05-16T03:41:38.371Z,13.10
2023-05-16T03:44:23.769Z,13.00
2023-05-16T03:47:09.311Z,13.10
2023-05-16T03:49:54.783Z,13.00
2023-05-16T03:52:40.354Z,12.90
2023-05-16T03:55:25.584Z,12.90
2023-05-16T03:58:12.186Z,12.80
2023-05-16T04:00:57.649Z,12.90
2023-05-16T04:03:42.870Z,12.80
2023-05-16T04:06:28.270Z,12.80
2023-05-16T04:09:13.665Z,12.80
2023-05-16T04:12:01.819Z,12.80
2023-05-16T04:14:47.361Z,12.80
2023-05-16T04:17:33.282Z,12.80
2023-05-16T04:20:18.449Z,12.90
2023-05-16T04:23:03.901Z,12.90
2023-05-16T04:25:50.693Z,13.00
2023-05-16T04:28:36.025Z,13.00
2023-05-16T04:31:23.073Z,13.10
2023-05-16T04:34:08.375Z,13.10
2023-05-16T04:36:55.476Z,13.20
2023-05-16T04:39:40.839Z,13.20
2023-05-16T04:42:25.953Z,13.20
2023-05-16T04:45:11.812Z,13.20
2023-05-16T04:47:56.961Z,13.20
2023-05-16T04:50:42.510Z,13.30
2023-05-16T04:53:27.780Z,13.40
2023-05-16T04:56:13.258Z,13.40
2023-05-16T04:58:58.553Z,13.40
2023-05-16T05:01:44.022Z,13.40
2023-05-16T05:04:29.525Z,13.60
2023-05-16T05:07:14.837Z,13.70
2023-05-16T05:10:00.321Z,13.80
2023-05-16T05:12:45.714Z,13.80
2023-05-16T05:15:31.289Z,13.90
2023-05-16T05:18:17.118Z,13.90
2023-05-16T05:21:02.279Z,14.00
2023-05-16T05:23:49.654Z,14.10
2023-05-16T05:26:35.002Z,14.10
2023-05-16T05:29:20.592Z,14.10
2023-05-16T05:32:06.147Z,14.20
2023-05-16T05:34:52.230Z,14.20
2023-05-16T05:37:37.314Z,14.30
2023-05-16T05:40:22.695Z,14.20
2023-05-16T05:43:08.160Z,14.30
2023-05-16T05:45:53.933Z,14.20
2023-05-16T05:48:39.565Z,14.20
2023-05-16T05:51:25.802Z,14.20
2023-05-16T05:54:11.155Z,14.30
2023-05-16T05:56:59.910Z,14.30
2023-05-16T05:59:45.339Z,14.30
2023-05-16T06:02:30.779Z,14.40
2023-05-16T06:05:16.172Z,14.40
2023-05-16T06:08:01.392Z,14.40
2023-05-16T06:10:47.233Z,14.40
2023-05-16T06:13:32.570Z,14.40
2023-05-16T06:16:18.062Z,14.40
2023-05-16T06:19:04.490Z,14.40
2023-05-16T06:21:49.736Z,14.20
2023-05-16T06:24:35.003Z,14.20
2023-05-16T06:27:20.389Z,14.20
2023-05-16T06:30:06.416Z,14.30
2023-05-16T06:32:51.921Z,14.10
2023-05-16T06:35:37.295Z,14.20
2023-05-16T06:38:22.621Z,14.40
2023-05-16T06:41:08.132Z,14.50
2023-05-16T06:43:53.588Z,14.60
2023-05-16T06:46:38.966Z,14.70
2023-05-16T06:49:24.304Z,14.80
2023-05-16T06:52:09.904Z,14.90
2023-05-16T06:54:55.444Z,14.90
2023-05-16T06:57:40.742Z,14.90
2023-05-16T07:00:27.005Z,15.00
2023-05-16T07:03:13.264Z,14.90
2023-05-16T07:05:58.555Z,15.10
2023-05-16T07:08:43.954Z,15.20
2023-05-16T07:11:29.371Z,15.40
2023-05-16T07:14:15.123Z,15.40
2023-05-16T07:17:00.659Z,15.40
2023-05-16T07:19:46.099Z,15.50
2023-05-16T07:22:33.796Z,15.60
2023-05-16T07:25:19.142Z,15.60
2023-05-16T07:28:04.651Z,15.70
2023-05-16T07:30:50.289Z,15.90
2023-05-16T07:33:35.697Z,15.90
2023-05-16T07:36:21.249Z,15.90
2023-05-16T07:39:06.882Z,16.00
2023-05-16T07:41:52.577Z,16.20
2023-05-16T07:44:37.764Z,16.10
2023-05-16T07:47:23.173Z,16.10
2023-05-16T07:50:08.961Z,16.30
2023-05-16T07:52:54.251Z,16.10
2023-05-16T07:55:39.701Z,16.00
2023-05-16T07:58:25.026Z,16.10
2023-05-16T08:01:10.535Z,16.30
2023-05-16T08:03:55.740Z,16.30
2023-05-16T08:06:41.034Z,16.60
2023-05-16T08:09:26.544Z,16.50
2023-05-16T08:12:11.933Z,16.50
2023-05-16T08:14:57.396Z,16.60
2023-05-16T08:17:42.899Z,16.70
2023-05-16T08:20:28.240Z,16.80
2023-05-16T08:23:14.542Z,17.00
2023-05-16T08:25:59.581Z,17.20
2023-05-16T08:28:45.007Z,17.40
2023-05-16T08:31:30.367Z,17.70
2023-05-16T08:34:15.924Z,17.60
2023-05-16T08:37:01.249Z,17.30
2023-05-16T08:39:46.748Z,17.20
2023-05-16T08:42:33.437Z,17.20
2023-05-16T08:45:19.116Z,17.30
2023-05-16T08:48:07.172Z,17.30
2023-05-16T08:50:54.645Z,17.20
2023-05-16T08:53:45.661Z,17.30
2023-05-16T08:56:32.572Z,17.60
2023-05-16T08:59:18.227Z,17.60
2023-05-16T09:02:05.475Z,17.50
2023-05-16T09:04:51.962Z,17.50
2023-05-16T09:07:37.364Z,17.80
2023-05-16T09:10:23.054Z,17.70
2023-05-16T09:13:08.331Z,17.80
2023-05-16T09:16:09.951Z,18.00
2023-05-16T09:19:02.243Z,18.20
2023-05-16T09:21:47.772Z,18.40
2023-05-16T09:24:33.372Z,18.60
2023-05-16T09:27:18.899Z,18.50
2023-05-16T09:30:04.506Z,18.50
2023-05-16T09:32:52.644Z,18.50
2023-05-16T09:38:28.142Z,18.80
2023-05-16T09:41:13.679Z,18.80
2023-05-16T09:43:59.110Z,18.90
2023-05-16T09:46:44.594Z,19.10
2023-05-16T09:49:30.770Z,19.00
2023-05-16T09:52:16.713Z,18.70
2023-05-16T09:55:05.035Z,18.30
2023-05-16T09:57:51.282Z,17.80
2023-05-16T10:00:36.877Z,17.80
2023-05-16T10:03:22.339Z,17.60
2023-05-16T10:06:09.065Z,17.70
2023-05-16T10:08:54.408Z,17.80
2023-05-16T10:11:43.545Z,17.90
2023-05-16T10:14:30.672Z,18.40
2023-05-16T10:17:16.557Z,18.40
2023-05-16T10:20:05.751Z,18.50
2023-05-16T10:22:55.087Z,18.60
2023-05-16T10:25:42.011Z,18.60
2023-05-16T10:28:28.609Z,18.80
2023-05-16T10:31:15.302Z,19.20
2023-05-16T10:34:01.280Z,19.40
2023-05-16T10:36:47.675Z,19.50
2023-05-16T10:39:33.232Z,19.40
2023-05-16T10:42:20.163Z,19.70
2023-05-16T10:45:19.592Z,19.70
2023-05-16T10:48:06.554Z,19.60
2023-05-16T10:50:52.631Z,19.60
2023-05-16T10:53:37.580Z,19.60
2023-05-16T10:56:25.137Z,19.90
2023-05-16T10:59:24.794Z,20.20
2023-05-16T11:02:25.191Z,20.10
2023-05-16T11:05:17.748Z,19.80
2023-05-16T11:08:06.683Z,19.90
2023-05-16T11:11:30.785Z,20.20
2023-05-16T11:14:35.951Z,20.30
2023-05-16T11:17:22.913Z,20.30
2023-05-16T11:20:24.622Z,20.40
2023-05-16T11:23:18.994Z,20.60
2023-05-16T11:26:04.305Z,20.20
2023-05-16T11:28:50.623Z,20.30
2023-05-16T11:31:36.489Z,20.00
2023-05-16T11:34:22.134Z,19.70
2023-05-16T11:37:10.772Z,19.70
2023-05-16T11:40:01.209Z,19.90
2023-05-16T11:42:48.325Z,20.00
2023-05-16T11:45:34.404Z,20.10
2023-05-16T11:48:32.651Z,20.40
2023-05-16T11:51:22.016Z,20.50
2023-05-16T11:54:09.380Z,20.80
2023-05-16T11:56:54.861Z,20.70
2023-05-16T11:59:41.460Z,20.60
2023-05-16T12:02:29.709Z,20.60
2023-05-16T12:05:17.609Z,20.50
2023-05-16T12:08:05.599Z,20.20
2023-05-16T12:10:53.082Z,19.80
2023-05-16T12:13:38.629Z,19.80
2023-05-16T12:16:24.015Z,19.80
2023-05-16T12:19:09.877Z,19.70
2023-05-16T12:21:55.641Z,19.50
2023-05-16T12:24:41.160Z,19.60
2023-05-16T12:27:29.818Z,19.60
2023-05-16T12:33:27.911Z,19.40
2023-05-16T12:36:15.589Z,19.40
2023-05-16T12:39:05.328Z,19.20
2023-05-16T12:41:50.474Z,19.10
2023-05-16T12:44:36.023Z,18.80
2023-05-16T12:47:21.482Z,18.50
2023-05-16T12:50:17.650Z,18.80
2023-05-16T12:53:03.072Z,18.70
2023-05-16T12:55:48.692Z,18.60
2023-05-16T12:58:34.096Z,18.50
2023-05-16T13:01:19.557Z,18.30
2023-05-16T13:04:05.293Z,18.30
2023-05-16T13:09:39.497Z,18.30
2023-05-16T13:12:27.078Z,18.20
2023-05-16T13:15:12.498Z,18.00
2023-05-16T13:17:58.111Z,17.70
2023-05-16T13:20:44.388Z,17.60
2023-05-16T13:23:30.173Z,17.70
2023-05-16T13:26:15.524Z,17.50
2023-05-16T13:29:02.181Z,17.40
2023-05-16T13:31:47.587Z,17.50
2023-05-16T13:34:33.100Z,17.50
2023-05-16T13:37:18.860Z,17.50
2023-05-16T13:40:05.028Z,17.40
2023-05-16T13:42:50.914Z,17.50
2023-05-16T13:45:37.500Z,17.50
2023-05-16T13:48:22.940Z,17.40
2023-05-16T13:51:08.198Z,17.40
2023-05-16T13:53:53.741Z,17.30
2023-05-16T13:56:39.149Z,17.10
2023-05-16T13:59:45.671Z,17.10
2023-05-16T14:02:29.582Z,17.20
2023-05-16T14:05:14.903Z,17.30
2023-05-16T14:08:00.658Z,17.30
2023-05-16T14:10:45.912Z,17.30
2023-05-16T14:13:32.104Z,17.30
2023-05-16T14:16:17.873Z,17.20
2023-05-16T14:19:03.680Z,17.00
2023-05-16T14:21:49.151Z,17.10
2023-05-16T14:24:34.969Z,17.00
2023-05-16T14:27:20.102Z,17.00
2023-05-16T14:30:06.561Z,17.00
2023-05-16T14:32:51.943Z,17.00
2023-05-16T14:35:38.406Z,17.10
2023-05-16T14:38:23.835Z,16.90
2023-05-16T14:41:09.166Z,16.80
2023-05-16T14:43:55.291Z,16.80
2023-05-16T14:46:40.718Z,16.80
2023-05-16T14:49:26.545Z,16.60
2023-05-16T14:52:12.036Z,16.60
2023-05-16T14:54:57.397Z,16.50
2023-05-16T14:57:45.482Z,16.50
2023-05-16T15:00:32.138Z,16.30
2023-05-16T15:03:18.075Z,16.20
2023-05-16T15:06:07.681Z,16.10
2023-05-16T15:08:53.751Z,16.10
2023-05-16T15:11:38.980Z,15.90
2023-05-16T15:14:24.202Z,15.60
2023-05-16T15:17:09.782Z,15.70
2023-05-16T15:19:55.724Z,15.80
2023-05-16T15:22:41.599Z,15.90
2023-05-16T15:25:28.284Z,16.00
2023-05-16T15:28:14.001Z,16.10
2023-05-16T15:30:59.234Z,16.10
2023-05-16T15:33:48.135Z,16.10
2023-05-16T15:36:33.777Z,16.10
2023-05-16T15:39:19.014Z,16.10
2023-05-16T15:44:54.385Z,16.10
2023-05-16T15:47:41.612Z,16.20
2023-05-16T15:50:27.258Z,16.20
2023-05-16T15:53:12.843Z,16.30
2023-05-16T15:55:58.109Z,16.30
2023-05-16T15:58:46.593Z,16.40
2023-05-16T16:01:32.042Z,16.20
2023-05-16T16:04:19.916Z,16.20
2023-05-16T16:07:07.243Z,16.30
2023-05-16T16:09:52.840Z,16.40
2023-05-16T16:12:37.865Z,16.40
2023-05-16T16:15:23.139Z,16.50
2023-05-16T16:18:09.309Z,16.40
2023-05-16T16:20:54.642Z,16.40
2023-05-16T16:23:40.046Z,16.30
2023-05-16T16:26:26.398Z,16.30
2023-05-16T16:29:11.807Z,16.20
2023-05-16T16:31:57.304Z,16.30
2023-05-16T16:34:42.500Z,16.30
2023-05-16T16:37:28.019Z,16.20
2023-05-16T16:40:13.542Z,16.10
2023-05-16T16:42:58.988Z,15.90
2023-05-16T16:45:44.400Z,16.00
2023-05-16T16:48:29.952Z,15.80
2023-05-16T16:51:15.291Z,15.70
2023-05-16T16:54:00.532Z,15.70
2023-05-16T16:56:47.443Z,15.70
2023-05-16T16:59:32.806Z,15.70
2023-05-16T17:02:17.923Z,15.70
2023-05-16T17:05:05.342Z,15.70
2023-05-16T17:07:51.650Z,15.70
2023-05-16T17:10:37.207Z,15.80
2023-05-16T17:13:23.334Z,16.00
2023-05-16T17:16:10.053Z,16.20
2023-05-16T17:18:56.397Z,16.40
2023-05-16T17:21:41.789Z,16.50
2023-05-16T17:24:27.057Z,16.60
2023-05-16T17:27:13.487Z,16.70
2023-05-16T17:29:58.711Z,16.70
2023-05-16T17:32:44.225Z,16.70
2023-05-16T17:35:30.050Z,16.70
2023-05-16T17:38:15.471Z,16.80
2023-05-16T17:41:01.598Z,16.60
2023-05-16T17:43:47.202Z,16.60
2023-05-16T17:46:33.235Z,16.60
2023-05-16T17:49:18.806Z,16.50
2023-05-16T17:52:04.353Z,16.40
2023-05-16T17:54:49.740Z,16.40
2023-05-16T17:57:35.369Z,16.40
2023-05-16T18:00:22.658Z,16.20
2023-05-16T18:03:08.456Z,16.20
2023-05-16T18:05:53.997Z,16.10
2023-05-16T18:08:39.311Z,16.10
2023-05-16T18:11:24.841Z,16.10
2023-05-16T18:14:11.546Z,16.10
2023-05-16T18:16:56.654Z,16.10
2023-05-16T18:19:42.067Z,15.90
2023-05-16T18:22:28.042Z,15.90
2023-05-16T18:25:13.886Z,15.90
2023-05-16T18:27:58.972Z,15.60
2023-05-16T18:30:44.365Z,15.50
2023-05-16T18:33:30.415Z,15.70
2023-05-16T18:36:15.747Z,15.70
2023-05-16T18:39:00.968Z,15.90
2023-05-16T18:41:48.327Z,16.20
2023-05-16T18:44:34.357Z,16.10
2023-05-16T18:47:20.801Z,16.00
2023-05-16T18:50:07.305Z,15.90
2023-05-16T18:52:57.286Z,15.90
2023-05-16T18:55:43.043Z,15.80
2023-05-16T18:58:28.338Z,15.70
2023-05-16T19:01:13.687Z,15.70
2023-05-16T19:03:59.028Z,15.70
2023-05-16T19:06:44.845Z,15.60
2023-05-16T19:09:30.600Z,15.40
2023-05-16T19:12:15.826Z,15.30
2023-05-16T19:15:01.382Z,15.20
2023-05-16T19:17:47.199Z,15.10
2023-05-16T19:20:35.784Z,15.00
2023-05-16T19:23:21.264Z,14.90
2023-05-16T19:26:06.705Z,14.80
2023-05-16T19:28:52.347Z,14.70
2023-05-16T19:31:37.724Z,14.60
2023-05-16T19:34:23.047Z,14.50
2023-05-16T19:37:09.024Z,14.40
2023-05-16T19:39:54.242Z,14.30
2023-05-16T19:42:39.872Z,14.30
2023-05-16T19:45:25.196Z,14.30
2023-05-16T19:48:10.859Z,14.20
2023-05-16T19:50:56.551Z,14.10
2023-05-16T19:53:42.788Z,14.10
2023-05-16T19:56:28.252Z,14.10
2023-05-16T19:59:13.772Z,14.10
2023-05-16T20:01:59.721Z,14.00
2023-05-16T20:04:45.367Z,13.90
2023-05-16T20:07:30.852Z,13.80
2023-05-16T20:10:21.142Z,13.80
2023-05-16T20:13:07.169Z,13.70
2023-05-16T20:15:52.697Z,13.70
2023-05-16T20:18:37.864Z,13.80
2023-05-16T20:21:23.236Z,13.70
2023-05-16T20:24:08.560Z,13.70
2023-05-16T20:26:54.359Z,13.60
2023-05-16T20:29:39.713Z,13.60
2023-05-16T20:32:25.068Z,13.60
2023-05-16T20:35:11.257Z,13.60
2023-05-16T20:37:56.331Z,13.70
2023-05-16T20:40:41.924Z,13.70
2023-05-16T20:43:27.052Z,13.70
2023-05-16T20:46:12.548Z,13.70
2023-05-16T20:48:58.133Z,13.70
2023-05-16T20:51:46.043Z,13.60
2023-05-16T20:54:31.617Z,13.60
2023-05-16T20:57:17.691Z,13.60
2023-05-16T21:00:02.935Z,13.50
2023-05-16T21:02:48.319Z,13.60
2023-05-16T21:05:35.797Z,13.50
2023-05-16T21:08:21.480Z,13.40
2023-05-16T21:11:06.728Z,13.40
2023-05-16T21:13:52.133Z,13.40
2023-05-16T21:16:37.518Z,13.40
2023-05-16T21:19:22.929Z,13.40
2023-05-16T21:22:08.137Z,13.40
2023-05-16T21:24:53.554Z,13.40
2023-05-16T21:27:42.441Z,13.40
2023-05-16T21:30:28.182Z,13.30
2023-05-16T21:33:13.741Z,13.30
2023-05-16T21:36:00.366Z,13.30
2023-05-16T21:38:45.715Z,13.20
2023-05-16T21:41:31.128Z,13.20
2023-05-16T21:44:18.395Z,13.20
2023-05-16T21:47:03.827Z,13.10
2023-05-16T21:49:49.820Z,13.00
2023-05-16T21:52:35.335Z,13.00
2023-05-16T21:55:21.218Z,12.90
2023-05-16T21:58:06.483Z,12.90
2023-05-16T22:00:52.127Z,12.80
2023-05-16T22:03:37.527Z,12.80
2023-05-16T22:06:23.530Z,12.80
2023-05-16T22:09:08.601Z,12.60
2023-05-16T22:11:54.033Z,12.70
2023-05-16T22:14:39.454Z,12.60
2023-05-16T22:17:25.053Z,12.60
2023-05-16T22:20:11.002Z,12.60
2023-05-16T22:22:56.507Z,12.50
2023-05-16T22:25:42.016Z,12.50
2023-05-16T22:28:27.639Z,12.40
2023-05-16T22:31:12.990Z,12.30
2023-05-16T22:33:58.558Z,12.30
2023-05-16T22:36:43.874Z,12.30
2023-05-16T22:39:29.382Z,12.20
2023-05-16T22:42:14.904Z,12.20
2023-05-16T22:45:00.222Z,12.10
2023-05-16T22:47:45.668Z,12.10
2023-05-16T22:50:31.007Z,12.10
2023-05-16T22:53:16.397Z,12.00
2023-05-16T22:56:02.053Z,12.00
2023-05-16T22:58:47.102Z,12.00
2023-05-16T23:01:32.663Z,12.00
2023-05-16T23:04:17.999Z,12.00
2023-05-16T23:07:03.401Z,12.00
2023-05-16T23:09:48.671Z,11.90
2023-05-16T23:12:34.047Z,11.90
2023-05-16T23:15:19.497Z,11.80
2023-05-16T23:18:05.137Z,11.80
2023-05-16T23:20:50.688Z,11.80
2023-05-16T23:23:36.205Z,11.70
2023-05-16T23:26:21.666Z,11.70
2023-05-16T23:29:07.587Z,11.60
2023-05-16T23:31:53.021Z,11.60
2023-05-16T23:34:38.354Z,11.50
2023-05-16T23:37:23.739Z,11.60
2023-05-16T23:40:09.568Z,11.50
2023-05-16T23:42:55.032Z,11.50
2023-05-16T23:45:40.391Z,11.40
2023-05-16T23:48:26.018Z,11.40
2023-05-16T23:51:11.707Z,11.50
2023-05-16T23:53:57.192Z,11.40
2023-05-16T23:56:42.688Z,11.40
2023-05-16T23:59:27.981Z,11.30
